sensor_id;sensor_type;location;lat;lon;timestamp;temperature;humidity
64654;DHT22;51065;48.884;12.598;2023-04-07T07:47:05;10.00;62.60
64654;DHT22;51065;48.884;12.598;2023-04-07T07:49:31;10.00;63.30
64654;DHT22;51065;48.884;12.598;2023-04-07T07:56:45;10.40;57.30
64654;DHT22;51065;48.884;12.598;2023-04-07T07:59:10;10.80;56.10
64654;DHT22;51065;48.884;12.598;2023-04-07T08:01:36;11.00;57.40
64654;DHT22;51065;48.884;12.598;2023-04-07T08:06:09;11.20;55.20
64654;DHT22;51065;48.884;12.598;2023-04-07T08:08:35;11.70;55.00
64654;DHT22;51065;48.884;12.598;2023-04-07T08:11:00;11.90;55.60
64654;DHT22;51065;48.884;12.598;2023-04-07T08:13:26;12.20;52.80
64654;DHT22;51065;48.884;12.598;2023-04-07T08:15:52;11.70;53.60
64654;DHT22;51065;48.884;12.598;2023-04-07T08:18:17;11.60;56.40
64654;DHT22;51065;48.884;12.598;2023-04-07T08:20:43;12.50;51.20
64654;DHT22;51065;48.884;12.598;2023-04-07T08:23:08;12.70;51.00
64654;DHT22;51065;48.884;12.598;2023-04-07T08:25:34;12.70;48.10
64654;DHT22;51065;48.884;12.598;2023-04-07T08:28:00;13.10;48.20
64654;DHT22;51065;48.884;12.598;2023-04-07T08:30:25;13.40;47.40
64654;DHT22;51065;48.884;12.598;2023-04-07T08:32:51;13.20;47.50
64654;DHT22;51065;48.884;12.598;2023-04-07T08:35:16;14.20;45.90
64654;DHT22;51065;48.884;12.598;2023-04-07T08:37:42;14.30;44.30
64654;DHT22;51065;48.884;12.598;2023-04-07T08:40:09;14.10;45.80
64654;DHT22;51065;48.884;12.598;2023-04-07T08:42:42;14.40;45.00
64654;DHT22;51065;48.884;12.598;2023-04-07T08:45:11;14.80;44.10
64654;DHT22;51065;48.884;12.598;2023-04-07T08:47:39;15.30;43.80
64654;DHT22;51065;48.884;12.598;2023-04-07T08:50:07;15.50;45.00
64654;DHT22;51065;48.884;12.598;2023-04-07T08:52:43;15.50;44.20
64654;DHT22;51065;48.884;12.598;2023-04-07T08:55:11;15.30;43.90
64654;DHT22;51065;48.884;12.598;2023-04-07T08:57:36;15.60;43.20
64654;DHT22;51065;48.884;12.598;2023-04-07T09:00:03;15.30;45.10
64654;DHT22;51065;48.884;12.598;2023-04-07T09:02:37;14.60;46.10
64654;DHT22;51065;48.884;12.598;2023-04-07T09:05:05;13.90;45.20
64654;DHT22;51065;48.884;12.598;2023-04-07T09:07:32;14.00;46.90
64654;DHT22;51065;48.884;12.598;2023-04-07T09:09:59;14.30;46.80
64654;DHT22;51065;48.884;12.598;2023-04-07T09:12:25;14.00;47.40
64654;DHT22;51065;48.884;12.598;2023-04-07T09:14:52;14.40;46.20
64654;DHT22;51065;48.884;12.598;2023-04-07T09:17:18;14.80;45.30
64654;DHT22;51065;48.884;12.598;2023-04-07T09:19:44;15.10;45.20
64654;DHT22;51065;48.884;12.598;2023-04-07T09:22:09;15.80;45.30
64654;DHT22;51065;48.884;12.598;2023-04-07T09:24:39;16.00;44.60
64654;DHT22;51065;48.884;12.598;2023-04-07T09:27:13;16.00;41.00
64654;DHT22;51065;48.884;12.598;2023-04-07T09:29:40;16.90;40.90
64654;DHT22;51065;48.884;12.598;2023-04-07T09:32:07;16.70;40.10
64654;DHT22;51065;48.884;12.598;2023-04-07T09:34:35;15.60;42.20
64654;DHT22;51065;48.884;12.598;2023-04-07T09:37:02;15.50;41.90
64654;DHT22;51065;48.884;12.598;2023-04-07T09:39:28;14.60;43.20
64654;DHT22;51065;48.884;12.598;2023-04-07T09:41:53;14.50;43.80
64654;DHT22;51065;48.884;12.598;2023-04-07T09:44:20;15.50;44.40
64654;DHT22;51065;48.884;12.598;2023-04-07T09:46:56;15.40;43.40
64654;DHT22;51065;48.884;12.598;2023-04-07T09:49:23;15.70;41.40
64654;DHT22;51065;48.884;12.598;2023-04-07T09:52:06;15.40;43.20
64654;DHT22;51065;48.884;12.598;2023-04-07T09:54:34;15.40;41.00
64654;DHT22;51065;48.884;12.598;2023-04-07T09:57:01;14.70;43.00
64654;DHT22;51065;48.884;12.598;2023-04-07T09:59:28;15.60;42.80
64654;DHT22;51065;48.884;12.598;2023-04-07T10:01:54;16.20;42.10
64654;DHT22;51065;48.884;12.598;2023-04-07T10:04:21;16.50;42.20
64654;DHT22;51065;48.884;12.598;2023-04-07T10:06:46;16.50;40.50
64654;DHT22;51065;48.884;12.598;2023-04-07T10:09:13;16.60;40.50
64654;DHT22;51065;48.884;12.598;2023-04-07T10:11:40;17.00;41.30
64654;DHT22;51065;48.884;12.598;2023-04-07T10:14:08;16.90;42.10
64654;DHT22;51065;48.884;12.598;2023-04-07T10:16:34;17.20;39.20
64654;DHT22;51065;48.884;12.598;2023-04-07T10:19:01;17.30;38.50
64654;DHT22;51065;48.884;12.598;2023-04-07T10:21:27;17.50;39.20
64654;DHT22;51065;48.884;12.598;2023-04-07T10:24:18;17.30;39.00
64654;DHT22;51065;48.884;12.598;2023-04-07T10:26:51;17.30;39.10
64654;DHT22;51065;48.884;12.598;2023-04-07T10:29:19;16.70;38.80
64654;DHT22;51065;48.884;12.598;2023-04-07T10:31:45;16.70;40.60
64654;DHT22;51065;48.884;12.598;2023-04-07T10:34:11;16.50;41.30
64654;DHT22;51065;48.884;12.598;2023-04-07T10:37:10;17.50;40.30
64654;DHT22;51065;48.884;12.598;2023-04-07T10:39:37;18.50;39.10
64654;DHT22;51065;48.884;12.598;2023-04-07T10:42:03;19.80;36.20
64654;DHT22;51065;48.884;12.598;2023-04-07T10:44:44;20.00;34.80
64654;DHT22;51065;48.884;12.598;2023-04-07T10:47:11;19.80;35.50
64654;DHT22;51065;48.884;12.598;2023-04-07T10:49:38;18.70;37.40
64654;DHT22;51065;48.884;12.598;2023-04-07T10:52:23;18.60;38.80
64654;DHT22;51065;48.884;12.598;2023-04-07T10:58:27;19.40;37.10
64654;DHT22;51065;48.884;12.598;2023-04-07T11:03:41;20.60;34.40
64654;DHT22;51065;48.884;12.598;2023-04-07T11:06:13;19.80;34.50
64654;DHT22;51065;48.884;12.598;2023-04-07T11:08:45;20.00;34.40
64654;DHT22;51065;48.884;12.598;2023-04-07T11:11:13;20.20;35.50
64654;DHT22;51065;48.884;12.598;2023-04-07T11:13:47;19.50;36.50
64654;DHT22;51065;48.884;12.598;2023-04-07T11:16:14;18.90;36.50
64654;DHT22;51065;48.884;12.598;2023-04-07T11:18:40;19.10;34.90
64654;DHT22;51065;48.884;12.598;2023-04-07T11:21:17;18.70;34.70
64654;DHT22;51065;48.884;12.598;2023-04-07T11:23:44;20.00;34.10
64654;DHT22;51065;48.884;12.598;2023-04-07T11:26:13;19.90;34.60
64654;DHT22;51065;48.884;12.598;2023-04-07T11:31:14;19.80;35.60
64654;DHT22;51065;48.884;12.598;2023-04-07T11:33:51;20.00;32.30
64654;DHT22;51065;48.884;12.598;2023-04-07T11:36:43;19.90;33.00
64654;DHT22;51065;48.884;12.598;2023-04-07T11:39:19;19.40;31.80
64654;DHT22;51065;48.884;12.598;2023-04-07T11:41:49;19.20;31.60
64654;DHT22;51065;48.884;12.598;2023-04-07T11:44:14;19.50;32.30
64654;DHT22;51065;48.884;12.598;2023-04-07T11:47:00;18.70;33.50
64654;DHT22;51065;48.884;12.598;2023-04-07T11:49:27;18.30;32.50
64654;DHT22;51065;48.884;12.598;2023-04-07T11:52:04;19.30;31.20
64654;DHT22;51065;48.884;12.598;2023-04-07T11:54:45;19.40;32.70
64654;DHT22;51065;48.884;12.598;2023-04-07T11:57:28;20.40;31.80
64654;DHT22;51065;48.884;12.598;2023-04-07T12:00:07;20.80;31.10
64654;DHT22;51065;48.884;12.598;2023-04-07T12:06:00;20.20;29.60
64654;DHT22;51065;48.884;12.598;2023-04-07T12:08:56;20.40;30.10
64654;DHT22;51065;48.884;12.598;2023-04-07T12:11:21;19.50;32.10
64654;DHT22;51065;48.884;12.598;2023-04-07T12:13:47;17.90;31.30
64654;DHT22;51065;48.884;12.598;2023-04-07T12:16:12;18.30;32.10
64654;DHT22;51065;48.884;12.598;2023-04-07T12:18:38;19.10;31.20
64654;DHT22;51065;48.884;12.598;2023-04-07T12:21:03;18.70;29.70
64654;DHT22;51065;48.884;12.598;2023-04-07T12:23:29;18.20;31.10
64654;DHT22;51065;48.884;12.598;2023-04-07T12:25:55;17.00;31.90
64654;DHT22;51065;48.884;12.598;2023-04-07T12:28:21;18.10;32.80
64654;DHT22;51065;48.884;12.598;2023-04-07T12:30:46;19.10;32.40
64654;DHT22;51065;48.884;12.598;2023-04-07T12:33:13;19.30;32.40
64654;DHT22;51065;48.884;12.598;2023-04-07T12:35:38;19.70;30.40
64654;DHT22;51065;48.884;12.598;2023-04-07T12:38:04;18.40;31.60
64654;DHT22;51065;48.884;12.598;2023-04-07T12:40:30;18.10;32.80
64654;DHT22;51065;48.884;12.598;2023-04-07T12:42:56;18.00;30.50
64654;DHT22;51065;48.884;12.598;2023-04-07T12:45:25;17.60;31.90
64654;DHT22;51065;48.884;12.598;2023-04-07T12:47:51;17.20;32.40
64654;DHT22;51065;48.884;12.598;2023-04-07T12:50:16;17.30;32.50
64654;DHT22;51065;48.884;12.598;2023-04-07T12:52:42;17.60;31.90
64654;DHT22;51065;48.884;12.598;2023-04-07T12:55:37;17.40;32.60
64654;DHT22;51065;48.884;12.598;2023-04-07T12:58:11;17.40;33.70
64654;DHT22;51065;48.884;12.598;2023-04-07T13:00:37;17.30;32.60
64654;DHT22;51065;48.884;12.598;2023-04-07T13:03:03;17.60;33.30
64654;DHT22;51065;48.884;12.598;2023-04-07T13:05:29;17.50;35.20
64654;DHT22;51065;48.884;12.598;2023-04-07T13:07:54;17.40;31.50
64654;DHT22;51065;48.884;12.598;2023-04-07T13:10:20;16.90;33.80
64654;DHT22;51065;48.884;12.598;2023-04-07T13:12:46;16.70;33.50
64654;DHT22;51065;48.884;12.598;2023-04-07T13:15:11;17.30;34.40
64654;DHT22;51065;48.884;12.598;2023-04-07T13:17:37;17.30;33.70
64654;DHT22;51065;48.884;12.598;2023-04-07T13:20:04;17.30;33.90
64654;DHT22;51065;48.884;12.598;2023-04-07T13:22:30;17.50;32.70
64654;DHT22;51065;48.884;12.598;2023-04-07T13:24:55;17.50;34.20
64654;DHT22;51065;48.884;12.598;2023-04-07T13:27:21;17.80;34.30
64654;DHT22;51065;48.884;12.598;2023-04-07T13:29:47;18.60;33.00
64654;DHT22;51065;48.884;12.598;2023-04-07T13:32:27;19.00;31.20
64654;DHT22;51065;48.884;12.598;2023-04-07T13:35:23;18.70;31.20
64654;DHT22;51065;48.884;12.598;2023-04-07T13:37:50;18.70;31.80
64654;DHT22;51065;48.884;12.598;2023-04-07T13:40:15;18.80;31.10
64654;DHT22;51065;48.884;12.598;2023-04-07T13:42:42;18.20;33.00
64654;DHT22;51065;48.884;12.598;2023-04-07T13:45:08;18.30;31.70
64654;DHT22;51065;48.884;12.598;2023-04-07T13:47:33;19.10;30.60
64654;DHT22;51065;48.884;12.598;2023-04-07T13:50:00;19.40;31.70
64654;DHT22;51065;48.884;12.598;2023-04-07T13:52:25;18.90;31.70
64654;DHT22;51065;48.884;12.598;2023-04-07T13:55:00;18.90;32.20
64654;DHT22;51065;48.884;12.598;2023-04-07T13:57:28;17.90;32.90
64654;DHT22;51065;48.884;12.598;2023-04-07T13:59:53;17.40;33.80
64654;DHT22;51065;48.884;12.598;2023-04-07T14:02:19;18.10;33.20
64654;DHT22;51065;48.884;12.598;2023-04-07T14:04:45;18.80;31.90
64654;DHT22;51065;48.884;12.598;2023-04-07T14:07:11;18.10;32.00
64654;DHT22;51065;48.884;12.598;2023-04-07T14:09:37;17.90;31.50
64654;DHT22;51065;48.884;12.598;2023-04-07T14:12:03;17.50;32.20
64654;DHT22;51065;48.884;12.598;2023-04-07T14:14:29;17.70;32.80
64654;DHT22;51065;48.884;12.598;2023-04-07T14:16:55;18.00;33.20
64654;DHT22;51065;48.884;12.598;2023-04-07T14:19:22;17.60;35.90
64654;DHT22;51065;48.884;12.598;2023-04-07T14:21:48;17.10;35.00
64654;DHT22;51065;48.884;12.598;2023-04-07T14:24:14;16.80;35.80
64654;DHT22;51065;48.884;12.598;2023-04-07T14:26:42;16.70;36.40
64654;DHT22;51065;48.884;12.598;2023-04-07T14:29:07;16.70;38.90
64654;DHT22;51065;48.884;12.598;2023-04-07T14:31:48;16.70;35.60
64654;DHT22;51065;48.884;12.598;2023-04-07T14:34:15;16.70;35.60
64654;DHT22;51065;48.884;12.598;2023-04-07T14:36:51;16.90;35.80
64654;DHT22;51065;48.884;12.598;2023-04-07T14:39:16;17.00;34.00
64654;DHT22;51065;48.884;12.598;2023-04-07T14:41:42;17.30;33.30
64654;DHT22;51065;48.884;12.598;2023-04-07T14:44:12;17.50;32.80
64654;DHT22;51065;48.884;12.598;2023-04-07T14:46:37;17.70;33.00
64654;DHT22;51065;48.884;12.598;2023-04-07T14:49:03;17.70;31.50
64654;DHT22;51065;48.884;12.598;2023-04-07T14:51:28;17.90;32.60
64654;DHT22;51065;48.884;12.598;2023-04-07T14:53:54;18.00;31.70
64654;DHT22;51065;48.884;12.598;2023-04-07T14:56:22;17.90;32.00
64654;DHT22;51065;48.884;12.598;2023-04-07T14:58:49;17.60;32.00
64654;DHT22;51065;48.884;12.598;2023-04-07T15:01:14;17.40;32.90
64654;DHT22;51065;48.884;12.598;2023-04-07T15:03:40;17.20;33.40
64654;DHT22;51065;48.884;12.598;2023-04-07T15:06:11;17.10;34.40
64654;DHT22;51065;48.884;12.598;2023-04-07T15:08:37;17.10;33.60
64654;DHT22;51065;48.884;12.598;2023-04-07T15:11:04;16.10;34.70
64654;DHT22;51065;48.884;12.598;2023-04-07T15:13:30;16.30;35.90
64654;DHT22;51065;48.884;12.598;2023-04-07T15:15:55;16.10;33.90
64654;DHT22;51065;48.884;12.598;2023-04-07T15:18:21;16.00;35.00
64654;DHT22;51065;48.884;12.598;2023-04-07T15:20:46;16.50;36.00
64654;DHT22;51065;48.884;12.598;2023-04-07T15:23:12;16.60;34.20
64654;DHT22;51065;48.884;12.598;2023-04-07T15:25:39;16.80;33.80
64654;DHT22;51065;48.884;12.598;2023-04-07T15:28:07;16.90;33.30
64654;DHT22;51065;48.884;12.598;2023-04-07T15:30:33;16.90;33.30
64654;DHT22;51065;48.884;12.598;2023-04-07T15:32:59;16.70;34.40
64654;DHT22;51065;48.884;12.598;2023-04-07T15:35:26;16.00;34.20
64654;DHT22;51065;48.884;12.598;2023-04-07T15:40:59;15.60;35.60
64654;DHT22;51065;48.884;12.598;2023-04-07T15:43:40;15.30;36.60
64654;DHT22;51065;48.884;12.598;2023-04-07T15:46:11;15.00;36.20
64654;DHT22;51065;48.884;12.598;2023-04-07T15:48:37;14.60;37.00
64654;DHT22;51065;48.884;12.598;2023-04-07T15:51:03;14.30;39.40
64654;DHT22;51065;48.884;12.598;2023-04-07T15:53:28;14.00;39.70
64654;DHT22;51065;48.884;12.598;2023-04-07T15:55:54;13.80;38.60
64654;DHT22;51065;48.884;12.598;2023-04-07T15:58:20;13.70;38.70
64654;DHT22;51065;48.884;12.598;2023-04-07T16:00:45;13.60;40.90
64654;DHT22;51065;48.884;12.598;2023-04-07T16:03:11;13.40;40.00
64654;DHT22;51065;48.884;12.598;2023-04-07T16:05:37;13.20;39.00
64654;DHT22;51065;48.884;12.598;2023-04-07T16:08:03;13.10;39.60
64654;DHT22;51065;48.884;12.598;2023-04-07T16:10:28;13.00;40.70
64654;DHT22;51065;48.884;12.598;2023-04-07T16:12:54;12.90;41.90
64654;DHT22;51065;48.884;12.598;2023-04-07T16:15:19;12.80;41.90
64654;DHT22;51065;48.884;12.598;2023-04-07T16:17:46;12.70;43.30
64654;DHT22;51065;48.884;12.598;2023-04-07T16:20:12;12.70;42.70
64654;DHT22;51065;48.884;12.598;2023-04-07T16:22:41;12.60;42.20
64654;DHT22;51065;48.884;12.598;2023-04-07T16:25:08;12.50;42.40
64654;DHT22;51065;48.884;12.598;2023-04-07T16:27:34;12.40;43.60
64654;DHT22;51065;48.884;12.598;2023-04-07T16:30:00;12.30;43.00
64654;DHT22;51065;48.884;12.598;2023-04-07T16:32:25;12.30;43.50
64654;DHT22;51065;48.884;12.598;2023-04-07T16:34:51;12.20;42.90
64654;DHT22;51065;48.884;12.598;2023-04-07T16:37:16;12.20;43.00
64654;DHT22;51065;48.884;12.598;2023-04-07T16:39:42;12.10;43.20
64654;DHT22;51065;48.884;12.598;2023-04-07T16:42:07;12.00;44.20
64654;DHT22;51065;48.884;12.598;2023-04-07T16:44:33;11.90;45.00
64654;DHT22;51065;48.884;12.598;2023-04-07T16:46:59;11.80;44.40
64654;DHT22;51065;48.884;12.598;2023-04-07T16:49:25;11.70;45.00
64654;DHT22;51065;48.884;12.598;2023-04-07T16:51:50;11.60;45.10
64654;DHT22;51065;48.884;12.598;2023-04-07T16:54:16;11.50;45.50
64654;DHT22;51065;48.884;12.598;2023-04-07T16:56:42;11.40;46.00
64654;DHT22;51065;48.884;12.598;2023-04-07T16:59:07;11.30;46.80
64654;DHT22;51065;48.884;12.598;2023-04-07T17:01:33;11.20;46.30
64654;DHT22;51065;48.884;12.598;2023-04-07T17:03:58;11.20;45.70
64654;DHT22;51065;48.884;12.598;2023-04-07T17:06:24;11.00;47.30
64654;DHT22;51065;48.884;12.598;2023-04-07T17:08:49;10.90;47.20
64654;DHT22;51065;48.884;12.598;2023-04-07T17:11:15;10.80;47.80
64654;DHT22;51065;48.884;12.598;2023-04-07T17:13:41;10.60;48.30
64654;DHT22;51065;48.884;12.598;2023-04-07T17:16:11;10.50;48.00
64654;DHT22;51065;48.884;12.598;2023-04-07T17:18:38;10.40;49.70
64654;DHT22;51065;48.884;12.598;2023-04-07T17:21:04;10.20;48.50
64654;DHT22;51065;48.884;12.598;2023-04-07T17:23:30;10.10;49.80
64654;DHT22;51065;48.884;12.598;2023-04-07T17:25:55;10.00;50.60
64654;DHT22;51065;48.884;12.598;2023-04-07T17:28:21;9.80;50.20
64654;DHT22;51065;48.884;12.598;2023-04-07T17:30:46;9.60;52.10
64654;DHT22;51065;48.884;12.598;2023-04-07T17:33:12;9.40;52.50
64654;DHT22;51065;48.884;12.598;2023-04-07T17:35:38;9.10;54.60
64654;DHT22;51065;48.884;12.598;2023-04-07T17:38:03;9.00;54.50
64654;DHT22;51065;48.884;12.598;2023-04-07T17:40:30;9.20;54.10
64654;DHT22;51065;48.884;12.598;2023-04-07T17:42:55;9.20;56.10
64654;DHT22;51065;48.884;12.598;2023-04-07T17:45:22;9.20;55.30
64654;DHT22;51065;48.884;12.598;2023-04-07T17:47:48;9.20;55.50
64654;DHT22;51065;48.884;12.598;2023-04-07T17:50:14;9.10;57.60
64654;DHT22;51065;48.884;12.598;2023-04-07T17:52:40;9.00;56.50
64654;DHT22;51065;48.884;12.598;2023-04-07T17:55:07;8.80;57.90
64654;DHT22;51065;48.884;12.598;2023-04-07T17:57:33;8.70;58.10
64654;DHT22;51065;48.884;12.598;2023-04-07T18:00:00;8.70;59.40
64654;DHT22;51065;48.884;12.598;2023-04-07T18:02:26;8.60;58.80
64654;DHT22;51065;48.884;12.598;2023-04-07T18:04:51;8.40;59.40
64654;DHT22;51065;48.884;12.598;2023-04-07T18:07:18;8.40;61.10
64654;DHT22;51065;48.884;12.598;2023-04-07T18:09:44;8.20;60.70
64654;DHT22;51065;48.884;12.598;2023-04-07T18:12:09;7.90;62.10
64654;DHT22;51065;48.884;12.598;2023-04-07T18:14:35;7.60;64.10
64654;DHT22;51065;48.884;12.598;2023-04-07T18:17:00;7.50;66.40
64654;DHT22;51065;48.884;12.598;2023-04-07T18:19:26;7.40;66.70
64654;DHT22;51065;48.884;12.598;2023-04-07T18:21:54;7.30;67.80
64654;DHT22;51065;48.884;12.598;2023-04-07T18:24:20;7.20;68.70
64654;DHT22;51065;48.884;12.598;2023-04-07T18:26:45;7.40;69.40
64654;DHT22;51065;48.884;12.598;2023-04-07T18:29:12;7.40;70.70
64654;DHT22;51065;48.884;12.598;2023-04-07T18:31:39;7.30;71.60
64654;DHT22;51065;48.884;12.598;2023-04-07T18:34:06;7.30;71.50
64654;DHT22;51065;48.884;12.598;2023-04-07T18:36:32;7.10;70.90
64654;DHT22;51065;48.884;12.598;2023-04-07T18:38:58;7.20;74.40
64654;DHT22;51065;48.884;12.598;2023-04-07T18:41:23;7.30;71.70
64654;DHT22;51065;48.884;12.598;2023-04-07T18:43:49;7.30;72.40
64654;DHT22;51065;48.884;12.598;2023-04-07T18:46:15;7.20;71.90
64654;DHT22;51065;48.884;12.598;2023-04-07T18:48:41;7.10;76.60
64654;DHT22;51065;48.884;12.598;2023-04-07T18:51:09;6.90;76.50
64654;DHT22;51065;48.884;12.598;2023-04-07T18:53:35;6.70;78.40
64654;DHT22;51065;48.884;12.598;2023-04-07T18:56:01;6.50;84.50
64654;DHT22;51065;48.884;12.598;2023-04-07T18:58:26;6.40;84.20
64654;DHT22;51065;48.884;12.598;2023-04-07T19:00:52;6.50;84.40
64654;DHT22;51065;48.884;12.598;2023-04-07T19:03:19;6.70;77.20
64654;DHT22;51065;48.884;12.598;2023-04-07T19:05:45;7.00;77.40
64654;DHT22;51065;48.884;12.598;2023-04-07T19:08:11;7.30;75.20
64654;DHT22;51065;48.884;12.598;2023-04-07T19:10:36;7.60;73.50
64654;DHT22;51065;48.884;12.598;2023-04-07T19:13:03;7.70;71.40
64654;DHT22;51065;48.884;12.598;2023-04-07T19:15:32;7.70;72.10
64654;DHT22;51065;48.884;12.598;2023-04-07T19:18:03;7.50;74.70
64654;DHT22;51065;48.884;12.598;2023-04-07T19:20:29;7.20;79.00
64654;DHT22;51065;48.884;12.598;2023-04-07T19:22:55;7.00;82.40
64654;DHT22;51065;48.884;12.598;2023-04-07T19:25:22;6.80;85.00
64654;DHT22;51065;48.884;12.598;2023-04-07T19:27:48;6.90;88.10
64654;DHT22;51065;48.884;12.598;2023-04-07T19:30:14;6.70;87.40
64654;DHT22;51065;48.884;12.598;2023-04-07T19:32:40;6.60;90.70
64654;DHT22;51065;48.884;12.598;2023-04-07T19:35:06;6.40;93.10
64654;DHT22;51065;48.884;12.598;2023-04-07T19:37:32;6.30;93.90
64654;DHT22;51065;48.884;12.598;2023-04-07T19:39:58;6.30;94.10
64654;DHT22;51065;48.884;12.598;2023-04-07T19:42:23;6.20;96.10
64654;DHT22;51065;48.884;12.598;2023-04-07T19:44:50;6.10;96.50
64654;DHT22;51065;48.884;12.598;2023-04-07T19:47:16;6.10;97.70
64654;DHT22;51065;48.884;12.598;2023-04-07T19:49:41;5.90;97.30
64654;DHT22;51065;48.884;12.598;2023-04-07T19:52:07;5.90;99.10
64654;DHT22;51065;48.884;12.598;2023-04-07T19:54:32;5.80;99.90
64654;DHT22;51065;48.884;12.598;2023-04-07T19:56:58;5.80;99.80
64654;DHT22;51065;48.884;12.598;2023-04-07T19:59:23;5.80;99.90
64654;DHT22;51065;48.884;12.598;2023-04-07T20:01:50;5.80;99.90
64654;DHT22;51065;48.884;12.598;2023-04-07T20:04:16;5.80;99.90
64654;DHT22;51065;48.884;12.598;2023-04-07T20:06:41;5.80;99.90
64654;DHT22;51065;48.884;12.598;2023-04-07T20:09:07;5.70;99.90
64654;DHT22;51065;48.884;12.598;2023-04-07T20:11:32;5.70;99.90
64654;DHT22;51065;48.884;12.598;2023-04-07T20:13:58;5.80;99.90
64654;DHT22;51065;48.884;12.598;2023-04-07T20:16:24;5.80;99.90
64654;DHT22;51065;48.884;12.598;2023-04-07T20:18:50;5.80;99.90
64654;DHT22;51065;48.884;12.598;2023-04-07T20:21:16;5.80;99.90
64654;DHT22;51065;48.884;12.598;2023-04-07T20:23:41;5.80;99.90
64654;DHT22;51065;48.884;12.598;2023-04-07T20:26:08;5.70;99.90
64654;DHT22;51065;48.884;12.598;2023-04-07T20:28:34;5.60;99.90
64654;DHT22;51065;48.884;12.598;2023-04-07T20:31:00;5.60;99.90
64654;DHT22;51065;48.884;12.598;2023-04-07T20:33:25;5.40;99.90
64654;DHT22;51065;48.884;12.598;2023-04-07T20:35:51;5.30;99.90
64654;DHT22;51065;48.884;12.598;2023-04-07T20:38:17;5.30;99.90
64654;DHT22;51065;48.884;12.598;2023-04-07T20:40:43;5.40;99.90
64654;DHT22;51065;48.884;12.598;2023-04-07T20:43:09;5.40;99.90
64654;DHT22;51065;48.884;12.598;2023-04-07T20:45:34;5.60;99.90
64654;DHT22;51065;48.884;12.598;2023-04-07T20:48:00;5.60;99.90
64654;DHT22;51065;48.884;12.598;2023-04-07T20:50:26;5.60;99.90
64654;DHT22;51065;48.884;12.598;2023-04-07T20:52:52;5.80;99.90
64654;DHT22;51065;48.884;12.598;2023-04-07T20:55:18;5.80;99.90
64654;DHT22;51065;48.884;12.598;2023-04-07T20:57:43;5.90;99.90
64654;DHT22;51065;48.884;12.598;2023-04-07T21:00:09;5.90;99.90
64654;DHT22;51065;48.884;12.598;2023-04-07T21:02:36;5.80;99.90
64654;DHT22;51065;48.884;12.598;2023-04-07T21:05:02;5.80;99.90
64654;DHT22;51065;48.884;12.598;2023-04-07T21:07:28;5.90;99.90
64654;DHT22;51065;48.884;12.598;2023-04-07T21:09:54;5.90;99.90
64654;DHT22;51065;48.884;12.598;2023-04-07T21:12:19;5.90;99.90
64654;DHT22;51065;48.884;12.598;2023-04-07T21:14:45;6.00;99.90
64654;DHT22;51065;48.884;12.598;2023-04-07T21:17:11;6.00;99.90
64654;DHT22;51065;48.884;12.598;2023-04-07T21:19:36;6.00;99.90
64654;DHT22;51065;48.884;12.598;2023-04-07T21:22:02;6.00;99.90
64654;DHT22;51065;48.884;12.598;2023-04-07T21:24:29;6.10;99.90
64654;DHT22;51065;48.884;12.598;2023-04-07T21:26:56;6.20;99.90
64654;DHT22;51065;48.884;12.598;2023-04-07T21:29:22;6.30;99.90
64654;DHT22;51065;48.884;12.598;2023-04-07T21:31:48;6.30;99.90
64654;DHT22;51065;48.884;12.598;2023-04-07T21:34:14;6.30;99.90
64654;DHT22;51065;48.884;12.598;2023-04-07T21:36:40;6.30;99.90
64654;DHT22;51065;48.884;12.598;2023-04-07T21:39:06;6.30;99.90
64654;DHT22;51065;48.884;12.598;2023-04-07T21:41:33;6.40;99.50
64654;DHT22;51065;48.884;12.598;2023-04-07T21:43:59;6.40;99.50
64654;DHT22;51065;48.884;12.598;2023-04-07T21:46:25;6.50;98.80
64654;DHT22;51065;48.884;12.598;2023-04-07T21:48:50;6.50;98.60
64654;DHT22;51065;48.884;12.598;2023-04-07T21:51:16;6.50;97.30
64654;DHT22;51065;48.884;12.598;2023-04-07T21:53:41;6.60;97.20
64654;DHT22;51065;48.884;12.598;2023-04-07T21:56:07;6.60;97.00
64654;DHT22;51065;48.884;12.598;2023-04-07T21:58:33;6.60;96.90
64654;DHT22;51065;48.884;12.598;2023-04-07T22:00:59;6.50;96.90
64654;DHT22;51065;48.884;12.598;2023-04-07T22:03:25;6.60;96.90
64654;DHT22;51065;48.884;12.598;2023-04-07T22:05:56;6.60;97.30
64654;DHT22;51065;48.884;12.598;2023-04-07T22:08:22;6.60;96.40
64654;DHT22;51065;48.884;12.598;2023-04-07T22:10:47;6.60;95.00
64654;DHT22;51065;48.884;12.598;2023-04-07T22:13:13;6.60;94.40
64654;DHT22;51065;48.884;12.598;2023-04-07T22:15:38;6.60;93.10
64654;DHT22;51065;48.884;12.598;2023-04-07T22:18:05;6.70;94.10
64654;DHT22;51065;48.884;12.598;2023-04-07T22:20:31;6.70;93.60
64654;DHT22;51065;48.884;12.598;2023-04-07T22:22:56;6.70;94.40
64654;DHT22;51065;48.884;12.598;2023-04-07T22:25:22;6.70;94.20
64654;DHT22;51065;48.884;12.598;2023-04-07T22:27:48;6.70;93.70
64654;DHT22;51065;48.884;12.598;2023-04-07T22:30:17;6.70;94.40
64654;DHT22;51065;48.884;12.598;2023-04-07T22:32:42;6.70;95.50
64654;DHT22;51065;48.884;12.598;2023-04-07T22:35:08;6.70;96.20
64654;DHT22;51065;48.884;12.598;2023-04-07T22:37:34;6.60;96.00
64654;DHT22;51065;48.884;12.598;2023-04-07T22:40:00;6.60;97.00
64654;DHT22;51065;48.884;12.598;2023-04-07T22:42:25;6.60;96.60
64654;DHT22;51065;48.884;12.598;2023-04-07T22:44:51;6.60;96.20
64654;DHT22;51065;48.884;12.598;2023-04-07T22:47:16;6.60;96.10
64654;DHT22;51065;48.884;12.598;2023-04-07T22:49:42;6.60;96.00
64654;DHT22;51065;48.884;12.598;2023-04-07T22:52:08;6.60;95.40
64654;DHT22;51065;48.884;12.598;2023-04-07T22:54:33;6.50;95.20
64654;DHT22;51065;48.884;12.598;2023-04-07T22:56:59;6.50;94.60
64654;DHT22;51065;48.884;12.598;2023-04-07T22:59:26;6.50;96.20
64654;DHT22;51065;48.884;12.598;2023-04-07T23:01:51;6.50;94.90
64654;DHT22;51065;48.884;12.598;2023-04-07T23:04:17;6.50;95.30
64654;DHT22;51065;48.884;12.598;2023-04-07T23:06:42;6.40;94.70
64654;DHT22;51065;48.884;12.598;2023-04-07T23:09:08;6.40;94.90
64654;DHT22;51065;48.884;12.598;2023-04-07T23:11:34;6.40;95.20
64654;DHT22;51065;48.884;12.598;2023-04-07T23:14:01;6.30;94.90
64654;DHT22;51065;48.884;12.598;2023-04-07T23:16:30;6.30;94.30
64654;DHT22;51065;48.884;12.598;2023-04-07T23:18:56;6.30;94.60
64654;DHT22;51065;48.884;12.598;2023-04-07T23:21:21;6.20;94.90
64654;DHT22;51065;48.884;12.598;2023-04-07T23:23:47;6.30;95.00
64654;DHT22;51065;48.884;12.598;2023-04-07T23:26:13;6.30;94.20
64654;DHT22;51065;48.884;12.598;2023-04-07T23:28:38;6.40;94.20
64654;DHT22;51065;48.884;12.598;2023-04-07T23:31:04;6.30;94.60